Time,TemperatureF,DewpointF,PressureIn,WindDirection,WindDirectionDegrees,WindSpeedMPH,WindSpeedGustMPH,Humidity,HourlyPrecipIn,Conditions,Clouds,dailyrainin,SolarRadiationWatts/m^2,SoftwareType,DateUTC
2013-07-31 00:02:00,69.0,67.0,-100.00,WSW,248,2.0,3.0,92,0.00,,,0.00,0.000000,,2013-07-31 04:02:00,
2013-07-31 00:42:00,68.0,67.0,-100.00,ENE,72,0.0,3.0,96,0.01,,,0.01,0.000000,,2013-07-31 04:42:00,
2013-07-31 00:52:00,68.0,67.0,-100.00,ENE,72,0.0,3.0,96,0.01,,,0.01,0.000000,,2013-07-31 04:52:00,
2013-07-31 01:02:00,68.0,67.0,-100.00,ENE,72,0.0,3.0,96,0.01,,,0.01,0.000000,,2013-07-31 05:02:00,
2013-07-31 01:32:00,68.0,67.0,-100.00,NE,43,1.0,3.0,98,0.01,,,0.02,0.000000,,2013-07-31 05:32:00,
2013-07-31 01:43:00,68.0,67.0,-100.00,NE,43,1.0,3.0,98,0.01,,,0.02,0.000000,,2013-07-31 05:43:00,
2013-07-31 01:52:00,68.0,67.0,-100.00,NE,43,1.0,3.0,98,0.01,,,0.02,0.000000,,2013-07-31 05:52:00,
2013-07-31 02:02:00,68.0,67.0,-100.00,NE,43,1.0,3.0,98,0.01,,,0.02,0.000000,,2013-07-31 06:02:00,
2013-07-31 02:32:00,68.0,66.0,-100.00,East,91,1.0,3.0,94,0.04,,,0.06,0.000000,,2013-07-31 06:32:00,
2013-07-31 02:43:00,68.0,66.0,-100.00,East,91,1.0,3.0,94,0.04,,,0.06,0.000000,,2013-07-31 06:43:00,
2013-07-31 02:53:00,68.0,66.0,-100.00,East,91,1.0,3.0,94,0.04,,,0.06,0.000000,,2013-07-31 06:53:00,
2013-07-31 03:02:00,68.0,66.0,-100.00,East,91,1.0,3.0,94,0.04,,,0.06,0.000000,,2013-07-31 07:02:00,
2013-07-31 03:32:00,66.0,64.0,-100.00,East,93,2.0,5.0,93,0.03,,,0.09,0.000000,,2013-07-31 07:32:00,
2013-07-31 03:43:00,66.0,64.0,-100.00,East,93,2.0,5.0,93,0.03,,,0.09,0.000000,,2013-07-31 07:43:00,
2013-07-31 03:52:00,66.0,64.0,-100.00,East,93,2.0,5.0,93,0.03,,,0.09,0.000000,,2013-07-31 07:52:00,
2013-07-31 04:02:00,66.0,64.0,-100.00,East,93,2.0,5.0,93,0.03,,,0.09,0.000000,,2013-07-31 08:02:00,
2013-07-31 04:42:00,66.0,65.0,-100.00,NW,312,1.0,6.0,95,0.01,,,0.10,0.000000,,2013-07-31 08:42:00,
2013-07-31 04:53:00,66.0,65.0,-100.00,NW,312,1.0,6.0,95,0.01,,,0.10,0.000000,,2013-07-31 08:53:00,
2013-07-31 05:02:00,66.0,65.0,-100.00,NW,312,1.0,6.0,95,0.01,,,0.10,0.000000,,2013-07-31 09:02:00,
2013-07-31 05:44:00,65.0,64.0,-100.00,NW,314,2.0,6.0,95,0.03,,,0.13,0.000000,,2013-07-31 09:44:00,
2013-07-31 05:52:00,65.0,64.0,-100.00,NW,314,2.0,6.0,95,0.03,,,0.13,0.000000,,2013-07-31 09:52:00,
2013-07-31 06:02:00,65.0,64.0,-100.00,NW,314,2.0,6.0,95,0.03,,,0.13,0.000000,,2013-07-31 10:02:00,
2013-07-31 06:32:00,65.0,64.0,-100.00,ESE,122,2.0,7.0,96,0.03,,,0.16,0.000000,,2013-07-31 10:32:00,
2013-07-31 06:44:00,65.0,64.0,-100.00,ESE,122,2.0,7.0,96,0.03,,,0.16,0.000000,,2013-07-31 10:44:00,
2013-07-31 06:52:00,65.0,64.0,-100.00,ESE,122,2.0,7.0,96,0.03,,,0.16,0.000000,,2013-07-31 10:52:00,
2013-07-31 07:03:00,65.0,64.0,-100.00,ESE,122,2.0,7.0,96,0.03,,,0.16,0.000000,,2013-07-31 11:03:00,
2013-07-31 07:43:00,65.0,64.0,-100.00,SSE,156,0.0,4.0,98,0.00,,,0.16,0.000000,,2013-07-31 11:43:00,
2013-07-31 07:53:00,65.0,64.0,-100.00,SSE,156,0.0,4.0,98,0.00,,,0.16,0.000000,,2013-07-31 11:53:00,
2013-07-31 08:02:00,65.0,64.0,-100.00,SSE,156,0.0,4.0,98,0.00,,,0.16,0.000000,,2013-07-31 12:02:00,
2013-07-31 08:33:00,65.0,64.0,-100.00,SE,133,2.0,3.0,97,0.00,,,0.16,22.000000,,2013-07-31 12:33:00,
2013-07-31 08:43:00,65.0,64.0,-100.00,SE,133,2.0,3.0,97,0.00,,,0.16,22.000000,,2013-07-31 12:43:00,
2013-07-31 08:53:00,65.0,64.0,-100.00,SE,133,2.0,3.0,97,0.00,,,0.16,22.000000,,2013-07-31 12:53:00,
2013-07-31 09:02:00,65.0,64.0,-100.00,SE,133,2.0,3.0,97,0.00,,,0.16,22.000000,,2013-07-31 13:02:00,
2013-07-31 09:43:00,66.0,65.0,-100.00,SSE,161,2.0,4.0,95,0.00,,,0.16,44.000000,,2013-07-31 13:43:00,
2013-07-31 09:53:00,66.0,65.0,-100.00,SSE,161,2.0,4.0,95,0.00,,,0.16,44.000000,,2013-07-31 13:53:00,
2013-07-31 10:02:00,66.0,65.0,-100.00,SSE,161,2.0,4.0,95,0.00,,,0.16,44.000000,,2013-07-31 14:02:00,
2013-07-31 10:43:00,67.0,65.0,-100.00,East,82,1.0,4.0,94,0.00,,,0.16,68.000000,,2013-07-31 14:43:00,
2013-07-31 10:53:00,67.0,65.0,-100.00,East,82,1.0,4.0,94,0.00,,,0.16,68.000000,,2013-07-31 14:53:00,
2013-07-31 11:02:00,67.0,65.0,-100.00,East,82,1.0,4.0,94,0.00,,,0.16,68.000000,,2013-07-31 15:02:00,
2013-07-31 11:44:00,69.0,66.0,-100.00,East,91,3.0,5.0,91,0.00,,,0.16,134.000000,,2013-07-31 15:44:00,
2013-07-31 11:53:00,69.0,66.0,-100.00,East,91,3.0,5.0,91,0.00,,,0.16,134.000000,,2013-07-31 15:53:00,
2013-07-31 12:02:00,69.0,66.0,-100.00,East,91,3.0,5.0,91,0.00,,,0.16,134.000000,,2013-07-31 16:02:00,
2013-07-31 12:44:00,71.0,67.0,-100.00,NE,56,3.0,6.0,88,0.00,,,0.16,227.000000,,2013-07-31 16:44:00,
2013-07-31 12:53:00,71.0,67.0,-100.00,NE,56,3.0,6.0,88,0.00,,,0.16,227.000000,,2013-07-31 16:53:00,
2013-07-31 13:03:00,71.0,67.0,-100.00,NE,56,3.0,6.0,88,0.00,,,0.16,227.000000,,2013-07-31 17:03:00,
2013-07-31 13:33:00,70.0,67.0,-100.00,ENE,68,4.0,6.0,89,0.00,,,0.16,136.000000,,2013-07-31 17:33:00,
2013-07-31 13:43:00,70.0,67.0,-100.00,ENE,68,4.0,6.0,89,0.00,,,0.16,136.000000,,2013-07-31 17:43:00,
2013-07-31 13:53:00,70.0,67.0,-100.00,ENE,68,4.0,6.0,89,0.00,,,0.16,136.000000,,2013-07-31 17:53:00,
2013-07-31 14:02:00,70.0,67.0,-100.00,ENE,68,4.0,6.0,89,0.00,,,0.16,136.000000,,2013-07-31 18:02:00,
2013-07-31 14:33:00,73.0,67.0,-100.00,NE,55,5.0,7.0,81,0.00,,,0.16,290.000000,,2013-07-31 18:33:00,
2013-07-31 14:43:00,73.0,67.0,-100.00,NE,55,5.0,7.0,81,0.00,,,0.16,290.000000,,2013-07-31 18:43:00,
2013-07-31 14:52:00,73.0,67.0,-100.00,NE,55,5.0,7.0,81,0.00,,,0.16,290.000000,,2013-07-31 18:52:00,
2013-07-31 15:03:00,73.0,67.0,-100.00,NE,55,5.0,7.0,81,0.00,,,0.16,290.000000,,2013-07-31 19:03:00,
2013-07-31 15:33:00,76.0,68.0,-100.00,NE,46,3.0,8.0,77,0.00,,,0.16,434.000000,,2013-07-31 19:33:00,
2013-07-31 15:43:00,76.0,68.0,-100.00,NE,46,3.0,8.0,77,0.00,,,0.16,434.000000,,2013-07-31 19:43:00,
2013-07-31 15:53:00,76.0,68.0,-100.00,NE,46,3.0,8.0,77,0.00,,,0.16,434.000000,,2013-07-31 19:53:00,
2013-07-31 16:03:00,76.0,68.0,-100.00,NE,46,3.0,8.0,77,0.00,,,0.16,434.000000,,2013-07-31 20:03:00,
2013-07-31 16:43:00,75.0,68.0,-100.00,NE,53,3.0,8.0,79,0.00,,,0.16,265.000000,,2013-07-31 20:43:00,
2013-07-31 16:53:00,75.0,68.0,-100.00,NE,53,3.0,8.0,79,0.00,,,0.16,265.000000,,2013-07-31 20:53:00,
2013-07-31 17:02:00,75.0,68.0,-100.00,NE,53,3.0,8.0,79,0.00,,,0.16,265.000000,,2013-07-31 21:02:00,
2013-07-31 17:43:00,73.0,68.0,-100.00,NE,49,3.0,7.0,83,0.00,,,0.16,154.000000,,2013-07-31 21:43:00,
2013-07-31 17:53:00,73.0,68.0,-100.00,NE,49,3.0,7.0,83,0.00,,,0.16,154.000000,,2013-07-31 21:53:00,
2013-07-31 18:02:00,73.0,68.0,-100.00,NE,49,3.0,7.0,83,0.00,,,0.16,154.000000,,2013-07-31 22:02:00,
2013-07-31 18:43:00,71.0,69.0,-100.00,WSW,246,0.0,8.0,93,0.02,,,0.18,30.000000,,2013-07-31 22:43:00,
2013-07-31 18:53:00,71.0,69.0,-100.00,WSW,246,0.0,8.0,93,0.02,,,0.18,30.000000,,2013-07-31 22:53:00,
2013-07-31 19:02:00,71.0,69.0,-100.00,WSW,246,0.0,8.0,93,0.02,,,0.18,30.000000,,2013-07-31 23:02:00,
2013-07-31 19:32:00,71.0,69.0,-100.00,ENE,68,3.0,4.0,92,0.00,,,0.18,42.000000,,2013-07-31 23:32:00,
2013-07-31 19:42:00,71.0,69.0,-100.00,ENE,68,3.0,4.0,92,0.00,,,0.18,42.000000,,2013-07-31 23:42:00,
2013-07-31 19:53:00,71.0,69.0,-100.00,ENE,68,3.0,4.0,92,0.00,,,0.18,42.000000,,2013-07-31 23:53:00,
2013-07-31 20:02:00,71.0,69.0,-100.00,ENE,68,3.0,4.0,92,0.00,,,0.18,42.000000,,2013-08-01 00:02:00,
2013-07-31 20:32:00,71.0,69.0,-100.00,ESE,103,2.0,5.0,92,0.00,,,0.18,27.000000,,2013-08-01 00:32:00,
2013-07-31 20:43:00,71.0,69.0,-100.00,ESE,103,2.0,5.0,92,0.00,,,0.18,27.000000,,2013-08-01 00:43:00,
2013-07-31 20:52:00,71.0,69.0,-100.00,ESE,103,2.0,5.0,92,0.00,,,0.18,27.000000,,2013-08-01 00:52:00,
2013-07-31 21:03:00,71.0,69.0,-100.00,ESE,103,2.0,5.0,92,0.00,,,0.18,27.000000,,2013-08-01 01:03:00,
2013-07-31 21:33:00,70.0,68.0,-100.00,WNW,287,0.0,4.0,94,0.00,,,0.18,4.000000,,2013-08-01 01:33:00,
2013-07-31 21:43:00,70.0,68.0,-100.00,WNW,287,0.0,4.0,94,0.00,,,0.18,4.000000,,2013-08-01 01:43:00,
2013-07-31 21:53:00,70.0,68.0,-100.00,WNW,287,0.0,4.0,94,0.00,,,0.18,4.000000,,2013-08-01 01:53:00,
2013-07-31 22:02:00,70.0,68.0,-100.00,WNW,287,0.0,4.0,94,0.00,,,0.18,4.000000,,2013-08-01 02:02:00,
2013-07-31 22:43:00,70.0,68.0,-100.00,East,94,1.0,2.0,95,0.00,,,0.18,0.000000,,2013-08-01 02:43:00,
2013-07-31 22:53:00,70.0,68.0,-100.00,East,94,1.0,2.0,95,0.00,,,0.18,0.000000,,2013-08-01 02:53:00,
2013-07-31 23:02:00,70.0,68.0,-100.00,East,94,1.0,2.0,95,0.00,,,0.18,0.000000,,2013-08-01 03:02:00,
2013-07-31 23:43:00,70.0,69.0,-100.00,South,174,0.0,2.0,98,0.00,,,0.18,0.000000,,2013-08-01 03:43:00,
2013-07-31 23:53:00,70.0,69.0,-100.00,South,174,0.0,2.0,98,0.00,,,0.18,0.000000,,2013-08-01 03:53:00,